Time;durP1;ratioP1;P1;durP2;ratioP2;P2;SDS_P1;SDS_P2;PMS_P1;PMS_P2;Temp;Humidity;BMP_temperature;BMP_pressure;BME280_temperature;BME280_humidity;BME280_pressure;Samples;Min_cycle;Max_cycle;Signal;HPM_P1;HPM_P2
2023/02/13 00:01:27;;;;;;;25.40;14.23;;;4.40;99.90;;;4.30;84.09;101886.34;5060728;28;20205;-69
2023/02/13 00:03:57;;;;;;;26.67;14.70;;;4.40;99.90;;;4.31;84.14;101888.13;5055604;28;20206;-63
2023/02/13 00:06:26;;;;;;;26.27;14.10;;;4.40;99.90;;;4.31;83.60;101885.56;5054745;28;20202;-66
2023/02/13 00:08:54;;;;;;;26.80;13.73;;;4.40;99.90;;;4.30;83.96;101882.94;5058284;28;20253;-64
2023/02/13 00:11:22;;;;;;;23.93;13.63;;;4.40;99.90;;;4.28;83.95;101882.88;5060228;28;20210;-68
2023/02/13 00:13:51;;;;;;;22.07;14.17;;;4.40;99.90;;;4.27;83.77;101890.44;5063628;28;20190;-64
2023/02/13 00:16:19;;;;;;;27.00;14.03;;;4.40;99.90;;;4.29;83.72;101893.94;5064165;28;20240;-65
2023/02/13 00:18:48;;;;;;;24.00;13.67;;;4.40;99.90;;;4.31;83.83;101890.69;5065095;28;20339;-63
2023/02/13 00:21:17;;;;;;;28.17;13.23;;;4.40;99.90;;;4.31;84.53;101883.03;5064147;28;20198;-65
2023/02/13 00:23:46;;;;;;;22.60;13.50;;;4.40;99.90;;;4.31;83.69;101872.81;5063377;28;20662;-65
2023/02/13 00:26:16;;;;;;;27.50;13.47;;;4.40;99.90;;;4.31;83.77;101867.72;5064994;28;20213;-64
2023/02/13 00:28:45;;;;;;;29.30;13.70;;;4.40;99.90;;;4.32;84.24;101868.56;5063827;28;20229;-64
2023/02/13 00:31:16;;;;;;;24.97;14.13;;;4.40;99.90;;;4.34;83.87;101874.59;5063742;28;20226;-63
2023/02/13 00:33:45;;;;;;;24.67;13.67;;;4.50;99.90;;;4.34;84.09;101867.84;5064885;28;20264;-66
2023/02/13 00:36:15;;;;;;;24.10;13.33;;;4.50;99.90;;;4.34;84.18;101866.94;5062652;28;20198;-64
2023/02/13 00:38:46;;;;;;;24.87;13.40;;;4.50;99.90;;;4.30;83.63;101863.38;5063000;28;20288;-63
2023/02/13 00:41:16;;;;;;;23.27;13.20;;;4.40;99.90;;;4.33;83.98;101868.63;5064444;28;20186;-62
2023/02/13 00:43:44;;;;;;;26.13;13.13;;;4.50;99.90;;;4.33;84.22;101876.28;5063867;28;20265;-64
2023/02/13 00:46:13;;;;;;;21.27;12.07;;;4.40;99.90;;;4.28;83.76;101875.22;5064792;28;20186;-64
2023/02/13 00:48:42;;;;;;;24.93;12.93;;;4.40;99.90;;;4.31;83.36;101883.03;5063303;28;20208;-62
2023/02/13 00:51:11;;;;;;;24.87;13.27;;;4.40;99.90;;;4.31;84.24;101880.47;5063296;28;20202;-65
2023/02/13 00:53:39;;;;;;;25.37;12.63;;;4.40;99.90;;;4.27;83.34;101881.16;5060482;28;20202;-65
2023/02/13 00:56:09;;;;;;;25.93;12.93;;;4.40;99.90;;;4.28;84.14;101872.69;5060728;28;20190;-67
2023/02/13 00:58:38;;;;;;;23.27;13.10;;;4.40;99.90;;;4.27;83.63;101870.94;5061168;28;20294;-65
2023/02/13 01:01:07;;;;;;;24.00;12.27;;;4.40;99.90;;;4.29;83.72;101874.41;5063893;28;20202;-66
2023/02/13 01:03:35;;;;;;;24.53;13.23;;;4.40;99.90;;;4.30;84.15;101882.94;5063151;28;20236;-65
2023/02/13 01:06:04;;;;;;;23.70;13.70;;;4.40;99.90;;;4.32;84.09;101878.78;5063726;28;20248;-64
2023/02/13 01:08:33;;;;;;;20.20;12.50;;;4.50;99.90;;;4.35;83.71;101879.78;5062294;28;20206;-65
2023/02/13 01:11:02;;;;;;;23.13;12.00;;;4.40;99.90;;;4.38;83.65;101879.03;5062972;28;20233;-64
2023/02/13 01:13:31;;;;;;;22.93;12.27;;;4.50;99.90;;;4.39;84.12;101882.47;5064483;28;20213;-65
2023/02/13 01:16:00;;;;;;;19.93;12.53;;;4.50;99.90;;;4.39;83.81;101877.38;5061702;28;20209;-64
2023/02/13 01:18:29;;;;;;;30.93;13.53;;;4.50;99.90;;;4.42;83.36;101874.94;5063000;28;20257;-63
2023/02/13 01:21:00;;;;;;;23.43;12.93;;;4.50;99.90;;;4.42;83.24;101874.94;5062700;28;20210;-63
2023/02/13 01:23:33;;;;;;;24.17;13.30;;;4.50;99.90;;;4.43;83.81;101871.59;5062006;28;20182;-64
2023/02/13 01:26:04;;;;;;;29.33;13.53;;;4.50;99.90;;;4.41;83.24;101866.41;5060726;28;20186;-63
2023/02/13 01:28:34;;;;;;;23.57;13.63;;;4.50;99.90;;;4.42;83.33;101870.72;5062698;28;20217;-63
2023/02/13 01:31:03;;;;;;;28.33;14.13;;;4.50;99.90;;;4.44;84.14;101869.09;5061577;28;20474;-63
2023/02/13 01:33:31;;;;;;;27.93;14.43;;;4.50;99.90;;;4.46;83.98;101864.06;5063845;28;20254;-64
2023/02/13 01:36:05;;;;;;;21.00;13.53;;;4.60;99.90;;;4.47;83.26;101860.69;5061025;28;20197;-63
2023/02/13 01:38:33;;;;;;;24.60;14.03;;;4.50;99.90;;;4.49;83.89;101866.72;5062241;28;20206;-65
2023/02/13 01:41:02;;;;;;;24.90;14.30;;;4.60;99.90;;;4.50;83.46;101863.38;5062681;28;20213;-64
2023/02/13 01:43:48;;;;;;;24.03;14.10;;;4.60;99.90;;;4.51;83.22;101860.03;5060215;28;20220;-63
2023/02/13 01:46:23;;;;;;;23.00;13.27;;;4.60;99.90;;;4.51;83.35;101862.56;5063198;28;20194;-66
2023/02/13 01:48:56;;;;;;;23.57;13.13;;;4.60;99.90;;;4.53;83.85;101858.41;5061760;28;20948;-65
2023/02/13 01:51:29;;;;;;;23.50;14.17;;;4.70;99.90;;;4.54;83.04;101855.03;5062927;28;20209;-64
2023/02/13 01:54:04;;;;;;;25.17;12.90;;;4.60;99.90;;;4.54;82.84;101865.25;5060758;28;20178;-67
2023/02/13 01:56:37;;;;;;;27.43;12.67;;;4.60;99.90;;;4.53;83.24;101866.06;5060705;28;20206;-64
2023/02/13 01:59:13;;;;;;;28.90;13.50;;;4.60;99.90;;;4.52;82.81;101866.84;5065377;28;20205;-65
2023/02/13 02:01:42;;;;;;;24.03;13.30;;;4.60;99.90;;;4.53;83.05;101868.63;5065452;28;20193;-65
2023/02/13 02:04:16;;;;;;;21.60;12.77;;;4.60;99.90;;;4.54;82.65;101865.25;5065336;28;20201;-63
2023/02/13 02:06:50;;;;;;;20.93;12.20;;;4.60;99.90;;;4.52;83.18;101867.72;5067254;28;20186;-66
2023/02/13 02:09:23;;;;;;;21.77;12.00;;;4.60;99.90;;;4.54;83.17;101867.81;5067792;28;20182;-66
2023/02/13 02:12:00;;;;;;;24.43;12.87;;;4.60;99.90;;;4.55;83.24;101867.00;5064653;28;20190;-64
2023/02/13 02:14:30;;;;;;;22.53;12.70;;;4.60;99.90;;;4.56;82.98;101868.72;5065907;28;20627;-66
2023/02/13 02:16:59;;;;;;;18.50;11.87;;;4.60;99.90;;;4.57;82.64;101870.50;5068360;28;20201;-67
2023/02/13 02:19:40;;;;;;;20.67;12.13;;;4.70;99.90;;;4.57;83.33;101866.25;5065314;28;20201;-66
2023/02/13 02:22:49;;;;;;;22.63;11.80;;;4.70;99.90;;;4.60;82.49;101874.06;5067195;28;20194;-64
2023/02/13 02:26:05;;;;;;;16.90;11.27;;;4.60;99.90;;;4.63;82.97;101867.31;5066252;28;20205;-65
2023/02/13 02:29:16;;;;;;;23.17;12.50;;;4.70;99.90;;;4.64;83.10;101867.41;5067793;28;20206;-65
2023/02/13 02:32:11;;;;;;;20.20;11.60;;;4.70;99.90;;;4.64;82.43;101863.94;5066609;28;20230;-64
2023/02/13 02:34:50;;;;;;;21.03;11.57;;;4.70;99.90;;;4.66;82.80;101860.66;5065162;28;20225;-66
2023/02/13 02:37:40;;;;;;;21.73;11.67;;;4.70;99.90;;;4.64;82.26;101854.63;5067259;28;20217;-66
2023/02/13 02:40:23;;;;;;;20.20;10.47;;;4.60;99.90;;;4.68;81.95;101863.28;5065000;28;20202;-65
2023/02/13 02:43:07;;;;;;;20.40;11.07;;;4.80;99.90;;;4.69;81.99;101854.81;5065244;28;20182;-64
2023/02/13 02:45:44;;;;;;;22.00;12.00;;;4.80;99.90;;;4.70;81.90;101862.53;5065801;28;20189;-64
2023/02/13 02:51:24;;;;;;;19.50;10.73;;;4.80;99.90;;;4.73;82.24;101864.34;5063383;28;20251;-65
2023/02/13 02:55:05;;;;;;;19.87;12.10;;;4.70;99.90;;;4.72;82.03;101871.13;5066038;28;20243;-64
2023/02/13 02:56:57;;;;;;;20.90;11.43;;;4.80;99.90;;;4.71;82.35;101871.91;5066940;28;20194;-66
2023/02/13 03:08:07;;;;;;;17.37;10.40;;;4.80;99.90;;;4.80;81.45;101874.00;5066141;28;20241;-65
2023/02/13 03:13:40;;;;;;;20.20;11.30;;;4.80;99.90;;;4.79;81.52;101873.13;5064832;28;20190;-65
2023/02/13 03:24:53;;;;;;;19.17;10.90;;;4.90;99.90;;;4.79;81.75;101868.03;5062956;28;20307;-65
2023/02/13 03:30:33;;;;;;;19.03;9.90;;;4.90;99.90;;;4.80;81.52;101867.22;5065855;28;20303;-65
2023/02/13 03:33:23;;;;;;;17.07;10.80;;;4.90;99.90;;;4.79;81.55;101862.06;5062817;28;20217;-65
2023/02/13 03:39:00;;;;;;;20.13;10.40;;;4.80;99.90;;;4.75;81.35;101857.59;5064409;28;20186;-64
2023/02/13 03:41:36;;;;;;;21.77;11.37;;;4.80;99.90;;;4.75;81.29;101862.72;5064498;28;20232;-64
2023/02/13 03:44:14;;;;;;;18.47;10.30;;;4.80;99.90;;;4.73;81.80;101856.69;5063014;28;20228;-62
2023/02/13 03:46:47;;;;;;;19.33;10.93;;;4.80;99.90;;;4.74;81.88;101864.41;5063584;28;20187;-64
2023/02/13 03:52:14;;;;;;;19.67;10.40;;;4.90;99.90;;;4.78;81.84;101865.41;5063048;28;20248;-63
2023/02/13 04:00:28;;;;;;;21.03;10.23;;;4.90;99.90;;;4.80;81.96;101868.91;5061480;28;20225;-65
2023/02/13 04:03:04;;;;;;;18.67;11.17;;;4.80;99.90;;;4.76;81.70;101857.69;5060451;28;20202;-65
2023/02/13 04:05:41;;;;;;;18.70;10.87;;;4.80;99.90;;;4.76;81.91;101856.81;5063300;28;20186;-64
2023/02/13 04:08:10;;;;;;;19.17;11.03;;;4.90;99.90;;;4.75;81.39;101855.03;5064309;28;20193;-65
2023/02/13 04:10:49;;;;;;;20.70;10.50;;;4.90;99.90;;;4.75;81.56;101858.50;5063453;28;20221;-64
2023/02/13 04:13:24;;;;;;;20.60;10.57;;;4.90;99.90;;;4.76;81.41;101856.81;5065739;28;20413;-65
2023/02/13 04:16:00;;;;;;;26.73;15.00;;;4.80;99.90;;;4.77;81.58;101863.66;5063015;28;20197;-65
2023/02/13 04:18:31;;;;;;;19.13;9.90;;;4.90;99.90;;;4.74;82.10;101851.63;5064188;28;20228;-64
2023/02/13 04:21:03;;;;;;;18.30;10.07;;;4.80;99.90;;;4.72;82.02;101855.81;5063730;28;20190;-65
2023/02/13 04:23:32;;;;;;;17.17;10.47;;;4.80;99.90;;;4.76;81.48;101856.81;5063977;28;20339;-63
2023/02/13 04:26:07;;;;;;;19.63;11.43;;;4.80;99.90;;;4.76;81.77;101862.78;5065047;28;20213;-64
2023/02/13 04:28:35;;;;;;;20.77;11.37;;;4.90;99.90;;;4.77;81.71;101864.53;5064272;28;20252;-65
2023/02/13 04:31:04;;;;;;;19.87;10.97;;;4.80;99.90;;;4.76;82.18;101861.91;5063714;28;20234;-66
2023/02/13 04:33:33;;;;;;;16.80;10.33;;;4.80;99.90;;;4.77;81.94;101859.41;5064438;28;20208;-63
2023/02/13 04:36:02;;;;;;;15.23;10.37;;;4.90;99.90;;;4.79;81.42;101865.47;5063611;28;20209;-65
2023/02/13 04:38:30;;;;;;;20.30;10.60;;;4.90;99.90;;;4.78;81.61;101865.41;5064218;28;20202;-65
2023/02/13 04:40:58;;;;;;;18.67;10.40;;;4.90;99.90;;;4.77;81.80;101869.63;5063289;28;20250;-63
2023/02/13 04:43:28;;;;;;;21.40;11.67;;;4.80;99.90;;;4.77;81.79;101861.09;5063212;28;20202;-64
2023/02/13 04:45:57;;;;;;;19.93;11.43;;;4.90;99.90;;;4.78;81.93;101860.28;5065002;28;20198;-64
2023/02/13 04:48:25;;;;;;;20.17;10.83;;;4.90;99.90;;;4.82;81.49;101867.25;5062153;28;20200;-65
2023/02/13 04:50:57;;;;;;;19.87;12.33;;;4.90;99.90;;;4.83;81.60;101864.78;5061585;28;20201;-65
2023/02/13 04:53:26;;;;;;;22.60;12.53;;;4.90;99.90;;;4.83;81.59;101866.47;5063274;28;20208;-65
2023/02/13 04:55:54;;;;;;;17.03;11.57;;;4.90;99.90;;;4.84;81.58;101865.66;5063706;28;20213;-64
2023/02/13 04:58:23;;;;;;;19.47;11.30;;;4.90;99.90;;;4.84;82.01;101866.53;5065445;28;20202;-66
2023/02/13 05:00:53;;;;;;;22.53;11.73;;;4.90;99.90;;;4.86;81.41;101864.06;5063398;28;20210;-65
2023/02/13 05:03:21;;;;;;;15.90;10.87;;;4.90;99.90;;;4.87;81.32;101864.91;5062269;28;20194;-63
2023/02/13 05:05:52;;;;;;;21.27;12.63;;;4.90;99.90;;;4.90;81.46;101858.25;5064590;28;20206;-64
2023/02/13 05:08:20;;;;;;;20.63;12.57;;;4.90;99.90;;;4.91;81.30;101856.56;5063345;28;20205;-64
2023/02/13 05:10:49;;;;;;;19.00;11.50;;;5.00;99.90;;;4.90;81.61;101859.91;5060581;28;20206;-64
2023/02/13 05:13:20;;;;;;;19.63;11.73;;;5.00;99.90;;;4.90;81.56;101850.59;5063064;28;20193;-66
2023/02/13 05:15:49;;;;;;;22.27;11.43;;;5.00;99.90;;;4.90;81.43;101853.16;5061829;28;20186;-65
2023/02/13 05:18:19;;;;;;;17.87;11.57;;;4.90;99.90;;;4.89;81.68;101855.63;5062658;28;20212;-64
2023/02/13 05:23:21;;;;;;;21.07;12.27;;;4.90;99.90;;;4.90;81.38;101862.47;5061727;28;20206;-64
2023/02/13 05:23:36;;;;;;;20.20;12.20;;;4.90;99.90;;;4.89;81.39;101864.16;5062632;28;20190;-65
2023/02/13 05:26:05;;;;;;;18.93;12.00;;;5.00;99.90;;;4.90;81.90;101870.13;5063003;28;20228;-65
2023/02/13 05:31:19;;;;;;;18.73;11.80;;;5.00;99.90;;;4.90;81.73;101865.91;5063247;28;20234;-64
2023/02/13 05:33:51;;;;;;;22.17;11.93;;;5.00;99.90;;;4.92;81.43;101861.72;5066996;28;20189;-63
2023/02/13 05:36:20;;;;;;;20.03;12.33;;;5.00;99.90;;;4.90;81.24;101859.91;5066992;28;20233;-65
2023/02/13 05:38:48;;;;;;;19.17;12.47;;;5.00;99.90;;;4.93;81.27;101865.16;5065379;28;20431;-66
2023/02/13 05:41:17;;;;;;;19.60;11.87;;;5.00;99.90;;;4.94;81.38;101866.91;5056858;28;20202;-65
2023/02/13 05:43:45;;;;;;;25.13;12.17;;;5.00;99.90;;;4.96;81.13;101875.50;5062991;28;20261;-65
2023/02/13 05:46:13;;;;;;;21.77;11.83;;;5.00;99.90;;;4.96;81.03;101862.72;5065914;28;20202;-65
2023/02/13 05:48:42;;;;;;;20.07;12.37;;;5.00;99.90;;;4.96;81.22;101875.50;5066122;28;20209;-63
2023/02/13 05:51:11;;;;;;;17.20;11.17;;;5.00;99.90;;;4.96;81.44;101878.03;5068002;28;20209;-66
2023/02/13 05:53:40;;;;;;;21.97;11.83;;;5.00;99.90;;;4.94;81.22;101878.00;5067384;28;22008;-64
2023/02/13 05:56:08;;;;;;;19.97;12.13;;;5.00;99.90;;;4.95;81.25;101881.41;5065002;28;20210;-65
2023/02/13 05:58:37;;;;;;;20.30;10.77;;;5.00;99.90;;;4.94;81.18;101885.66;5065946;28;20198;-64
2023/02/13 06:01:06;;;;;;;19.90;11.93;;;5.00;99.90;;;4.98;81.33;101886.66;5061871;28;20206;-64
2023/02/13 06:03:34;;;;;;;20.33;11.67;;;5.00;99.90;;;5.00;81.16;101887.56;5066010;28;20984;-64
2023/02/13 06:06:03;;;;;;;19.93;12.10;;;5.00;99.90;;;5.00;81.18;101885.03;5066050;28;20201;-65
2023/02/13 06:08:33;;;;;;;19.43;11.47;;;5.00;99.90;;;4.97;81.20;101884.91;5066412;28;20285;-65
2023/02/13 06:11:02;;;;;;;20.70;12.27;;;5.00;99.90;;;5.00;81.47;101887.56;5067331;28;20197;-63
2023/02/13 06:13:31;;;;;;;17.20;10.63;;;5.00;99.90;;;5.00;81.18;101885.88;5065604;28;20245;-64
2023/02/13 06:15:59;;;;;;;20.93;10.80;;;5.10;99.90;;;5.02;81.15;101880.88;5063975;28;20221;-66
2023/02/13 06:18:28;;;;;;;17.83;11.40;;;5.10;99.90;;;5.00;80.98;101883.34;5063289;28;20202;-66
2023/02/13 06:20:56;;;;;;;19.03;11.30;;;5.00;99.90;;;5.00;81.10;101874.81;5061498;28;20194;-65
2023/02/13 06:23:25;;;;;;;17.93;10.70;;;5.10;99.90;;;5.02;80.77;101871.50;5062223;28;20651;-65
2023/02/13 06:25:55;;;;;;;18.17;11.50;;;5.00;99.90;;;5.02;80.92;101880.88;5061636;28;20224;-65
2023/02/13 06:28:23;;;;;;;18.40;10.90;;;5.00;99.90;;;5.04;80.65;101884.34;5064875;28;20221;-63
2023/02/13 06:30:52;;;;;;;19.80;11.27;;;5.10;99.90;;;5.05;80.61;101881.00;5062763;28;20252;-65
2023/02/13 06:33:20;;;;;;;22.93;11.47;;;5.10;99.90;;;5.04;80.65;101882.69;5062529;28;20222;-66
2023/02/13 06:35:48;;;;;;;18.30;11.03;;;5.10;99.90;;;5.06;80.73;101885.28;5061528;28;20209;-65
2023/02/13 06:38:17;;;;;;;20.50;11.27;;;5.10;99.90;;;5.05;80.16;101883.53;5056757;28;20198;-65
2023/02/13 06:40:46;;;;;;;19.50;11.60;;;5.10;99.90;;;5.07;80.53;101887.03;5058087;28;20348;-65
2023/02/13 06:43:17;;;;;;;19.50;11.00;;;5.10;99.90;;;5.04;80.72;101882.69;5037797;28;20308;-65
2023/02/13 06:45:46;;;;;;;22.53;11.50;;;5.10;99.90;;;5.06;80.41;101886.16;5037009;28;20233;-64
2023/02/13 06:48:15;;;;;;;19.53;11.70;;;5.10;99.90;;;5.08;80.23;101897.31;5037927;28;20198;-64
2023/02/13 06:50:44;;;;;;;22.40;11.07;;;5.10;99.90;;;5.10;80.11;101894.81;5033721;28;20287;-65
2023/02/13 06:53:12;;;;;;;15.53;11.07;;;5.10;99.90;;;5.09;79.77;101888.84;5034736;28;20661;-64
2023/02/13 06:55:40;;;;;;;20.40;11.30;;;5.10;99.90;;;5.09;80.43;101891.38;5033301;28;20233;-63
2023/02/13 06:58:09;;;;;;;17.70;11.13;;;5.10;99.90;;;5.13;80.33;101891.50;5035350;28;20972;-63
2023/02/13 07:00:38;;;;;;;21.57;12.30;;;5.10;99.90;;;5.13;79.61;101889.84;5033159;28;20297;-65
2023/02/13 07:03:08;;;;;;;17.03;10.43;;;5.20;99.90;;;5.13;79.82;101888.97;5034580;28;20248;-65
2023/02/13 07:05:40;;;;;;;16.57;10.80;;;5.20;99.90;;;5.14;79.83;101889.00;5035541;28;20670;-66
2023/02/13 07:08:09;;;;;;;22.43;11.93;;;5.20;99.90;;;5.15;79.88;101885.63;5037409;28;20205;-64
2023/02/13 07:10:38;;;;;;;19.60;11.03;;;5.20;99.90;;;5.16;79.54;101882.28;5033325;28;20202;-63
2023/02/13 07:13:07;;;;;;;17.40;10.53;;;5.20;99.90;;;5.18;79.79;101882.34;5033220;28;20233;-64
2023/02/13 07:15:36;;;;;;;16.57;10.33;;;5.20;99.90;;;5.17;79.97;101880.59;5034261;28;20211;-63
2023/02/13 07:18:08;;;;;;;17.03;10.10;;;5.20;99.90;;;5.17;79.68;101889.13;5034247;28;20655;-65
2023/02/13 07:20:39;;;;;;;17.27;9.30;;;5.20;99.90;;;5.21;79.68;101891.00;5030163;28;20293;-65
2023/02/13 07:23:07;;;;;;;15.53;9.63;;;5.30;99.90;;;5.28;79.61;101885.31;5035879;28;21634;-63
2023/02/13 07:25:36;;;;;;;15.73;9.20;;;5.40;99.90;;;5.38;79.57;101883.16;5039925;28;20215;-65
2023/02/13 07:28:06;;;;;;;14.47;10.07;;;5.40;99.90;;;5.49;79.49;101879.31;5034596;28;20233;-61
2023/02/13 07:30:35;;;;;;;13.53;9.93;;;5.60;99.90;;;5.62;79.13;101889.19;5031530;28;20678;-63
2023/02/13 07:33:06;;;;;;;13.73;8.33;;;5.70;99.90;;;5.76;78.64;101879.50;5036417;28;20308;-63
2023/02/13 07:35:36;;;;;;;13.90;8.67;;;5.80;99.90;;;5.92;78.38;101889.50;5034634;28;20206;-63
2023/02/13 07:38:05;;;;;;;18.17;8.73;;;6.00;99.90;;;6.06;77.91;101895.13;5036845;28;20670;-63
2023/02/13 07:40:33;;;;;;;12.87;8.90;;;6.20;99.90;;;6.22;77.05;101902.56;5035288;28;20228;-62
2023/02/13 07:43:02;;;;;;;18.07;8.70;;;6.30;99.90;;;6.31;76.23;101896.03;5034607;28;20632;-63
2023/02/13 07:45:30;;;;;;;14.50;8.30;;;6.40;99.90;;;6.34;76.19;101903.81;5030798;28;20210;-64
2023/02/13 07:47:59;;;;;;;13.40;8.03;;;6.40;99.90;;;6.35;75.73;101897.88;5036885;28;20209;-62
2023/02/13 07:50:29;;;;;;;15.03;8.43;;;6.50;99.90;;;6.34;75.79;101891.88;5034738;28;20243;-63
2023/02/13 07:53:00;;;;;;;11.50;8.13;;;6.50;99.90;;;6.31;75.33;101886.66;5035564;28;20209;-63
2023/02/13 07:55:29;;;;;;;12.73;7.33;;;6.40;99.90;;;6.31;75.47;101890.91;5033161;28;20206;-62
2023/02/13 07:58:00;;;;;;;15.83;8.03;;;6.40;99.90;;;6.28;75.75;101892.53;5033107;28;20206;-64
2023/02/13 08:00:29;;;;;;;12.43;7.13;;;6.40;99.90;;;6.26;75.54;101894.19;5036510;28;20206;-65
2023/02/13 08:02:59;;;;;;;10.57;7.10;;;6.30;99.90;;;6.21;75.91;101885.44;5036860;28;20205;-64
2023/02/13 08:05:31;;;;;;;12.30;7.20;;;6.30;99.90;;;6.19;76.08;101892.22;5033926;28;20214;-70
2023/02/13 08:08:00;;;;;;;11.67;7.07;;;6.30;99.90;;;6.17;76.29;101883.59;5039554;28;20206;-67
2023/02/13 08:13:16;;;;;;;9.77;6.30;;;6.20;99.90;;;6.14;77.22;101888.59;5031872;28;20217;-64
2023/02/13 08:15:44;;;;;;;12.83;7.37;;;6.30;99.90;;;6.13;77.05;101886.84;5036201;28;20301;-64
2023/02/13 08:18:13;;;;;;;13.60;7.23;;;6.30;99.90;;;6.11;76.77;101878.25;5032983;28;20774;-68
2023/02/13 08:20:43;;;;;;;8.83;6.77;;;6.20;99.90;;;6.13;77.33;101878.31;5031633;28;20198;-66
2023/02/13 08:23:12;;;;;;;10.57;6.13;;;6.30;99.90;;;6.10;76.99;101876.50;5030302;28;20312;-65
2023/02/13 08:25:40;;;;;;;8.50;6.70;;;6.20;99.90;;;6.10;77.20;101870.53;5033368;28;20672;-64
2023/02/13 08:28:09;;;;;;;11.50;6.97;;;6.20;99.90;;;6.10;76.78;101881.63;5033344;28;21068;-67
2023/02/13 08:30:37;;;;;;;9.23;6.37;;;6.30;99.90;;;6.11;76.75;101875.69;5035262;28;20626;-63
2023/02/13 08:33:06;;;;;;;11.87;6.20;;;6.30;99.90;;;6.14;76.47;101872.38;5031322;28;20215;-63
2023/02/13 08:35:35;;;;;;;10.47;6.30;;;6.30;99.90;;;6.20;76.61;101877.72;5034602;28;20205;-64
2023/02/13 08:38:05;;;;;;;10.77;5.73;;;6.30;99.90;;;6.25;76.45;101877.03;5031751;28;20209;-65
2023/02/13 08:40:34;;;;;;;10.40;5.57;;;6.40;99.90;;;6.29;75.80;101876.34;5039817;28;20214;-64
2023/02/13 08:43:05;;;;;;;8.30;5.40;;;6.40;99.90;;;6.33;75.87;101874.75;5048893;28;20205;-65
2023/02/13 08:45:34;;;;;;;9.63;5.30;;;6.50;99.90;;;6.40;75.79;101870.72;5042725;28;20266;-64
2023/02/13 08:48:03;;;;;;;10.37;5.37;;;6.50;99.90;;;6.51;75.93;101860.03;5048481;28;20585;-65
2023/02/13 08:50:32;;;;;;;6.43;4.77;;;6.70;99.90;;;6.65;75.78;101859.63;5051417;28;20591;-65
2023/02/13 08:53:05;;;;;;;7.97;4.70;;;6.90;99.90;;;6.82;74.08;101855.09;5051980;28;20209;-64
2023/02/13 08:55:34;;;;;;;7.57;4.67;;;7.00;99.90;;;6.95;73.56;101852.09;5050569;28;20670;-65
2023/02/13 08:58:02;;;;;;;8.40;4.43;;;7.10;99.90;;;7.02;73.34;101852.31;5046937;28;20249;-66
2023/02/13 09:00:31;;;;;;;8.53;4.00;;;7.20;99.90;;;7.05;72.72;101859.25;5048712;28;20453;-65
2023/02/13 09:03:03;;;;;;;6.60;4.27;;;7.20;99.90;;;7.04;72.25;101862.66;5048809;28;20550;-65
2023/02/13 09:05:32;;;;;;;8.53;5.10;;;7.20;99.90;;;6.97;72.22;101858.16;5048982;28;20257;-64
2023/02/13 09:08:02;;;;;;;6.07;3.90;;;7.10;99.90;;;6.86;72.45;101851.81;5047234;28;20305;-64
2023/02/13 09:10:33;;;;;;;5.37;4.00;;;7.00;99.90;;;6.75;72.43;101854.00;5045451;28;20208;-64
2023/02/13 09:13:02;;;;;;;7.30;3.90;;;7.00;99.90;;;6.71;72.29;101862.41;5046076;28;20335;-65
2023/02/13 09:15:31;;;;;;;6.27;4.40;;;6.90;99.90;;;6.67;72.37;101856.31;5045649;28;20272;-69
2023/02/13 09:17:59;;;;;;;6.10;4.23;;;6.80;99.90;;;6.59;72.52;101861.97;5043985;28;20304;-63
2023/02/13 09:20:28;;;;;;;9.30;4.50;;;6.70;99.90;;;6.51;73.10;101860.03;5046542;28;20202;-66
2023/02/13 09:22:56;;;;;;;7.97;5.30;;;6.70;99.90;;;6.49;73.07;101865.94;5051556;28;20289;-67
2023/02/13 09:25:25;;;;;;;8.93;5.13;;;6.60;99.90;;;6.49;73.19;101865.94;5051270;28;20202;-65
2023/02/13 09:27:55;;;;;;;7.47;4.50;;;6.70;99.90;;;6.50;73.21;101858.28;5049462;28;20619;-66
2023/02/13 09:30:23;;;;;;;7.50;4.73;;;6.70;99.90;;;6.48;73.27;101865.06;5050947;28;20221;-66
2023/02/13 09:32:54;;;;;;;7.00;4.80;;;6.60;99.90;;;6.43;73.56;101870.84;5008123;28;20207;-66
2023/02/13 09:35:23;;;;;;;6.33;4.23;;;6.60;99.90;;;6.39;73.25;101859.63;5005676;28;20227;-67
2023/02/13 09:37:52;;;;;;;4.97;4.10;;;6.50;99.90;;;6.36;73.64;101866.31;5008910;28;20203;-65
2023/02/13 09:40:27;;;;;;;5.23;4.40;;;6.50;99.90;;;6.35;73.35;101872.28;5005234;28;20278;-65
2023/02/13 09:43:08;;;;;;;8.53;4.30;;;6.50;99.90;;;6.37;73.89;101868.94;5010888;28;20203;-65
2023/02/13 09:45:38;;;;;;;7.20;4.20;;;6.50;99.90;;;6.40;73.44;101858.78;5002968;28;20300;-63
2023/02/13 09:48:14;;;;;;;5.07;4.00;;;6.60;99.90;;;6.46;73.95;101866.69;5010554;28;20207;-65
2023/02/13 09:50:43;;;;;;;5.00;3.73;;;6.60;99.90;;;6.48;73.78;101859.06;5010287;28;20210;-65
2023/02/13 09:53:22;;;;;;;7.03;4.40;;;6.70;99.90;;;6.52;73.82;101855.81;5016192;28;20813;-65
2023/02/13 09:56:04;;;;;;;6.60;4.13;;;6.60;99.90;;;6.54;73.51;101849.03;5009832;28;20664;-67
2023/02/13 09:58:44;;;;;;;6.57;4.20;;;6.70;99.90;;;6.66;74.26;101848.56;5003951;28;20273;-65
2023/02/13 10:01:30;;;;;;;6.07;3.80;;;6.90;99.90;;;6.79;74.17;101850.72;5000014;28;20688;-66
2023/02/13 10:04:34;;;;;;;6.60;4.10;;;7.00;99.90;;;6.91;74.10;101856.25;5002963;28;20684;-66
2023/02/13 10:07:20;;;;;;;7.70;4.40;;;7.10;99.90;;;6.98;73.46;101862.44;4947087;28;20930;-65
2023/02/13 10:10:00;;;;;;;12.07;4.60;;;7.10;99.90;;;6.99;73.72;101869.28;5006648;28;20207;-66
2023/02/13 10:12:57;;;;;;;7.63;4.53;;;7.20;99.90;;;7.01;73.58;101867.66;5010683;28;20242;-67
2023/02/13 10:15:38;;;;;;;5.60;4.80;;;7.20;99.90;;;7.03;73.65;101873.69;5006904;28;20254;-65
2023/02/13 10:18:13;;;;;;;7.83;5.00;;;7.20;99.90;;;7.13;73.39;101878.31;5010089;28;20547;-64
2023/02/13 10:20:47;;;;;;;5.80;4.37;;;7.40;99.90;;;7.17;73.26;101880.13;5011289;28;20250;-65
2023/02/13 10:23:25;;;;;;;6.97;4.80;;;7.40;99.90;;;7.16;72.86;101886.09;5013137;28;20199;-66
2023/02/13 10:25:58;;;;;;;8.07;5.00;;;7.40;99.90;;;7.11;73.17;101872.28;5010292;28;20215;-64
2023/02/13 10:28:37;;;;;;;5.90;4.30;;;7.30;99.90;;;7.05;72.70;101876.31;5002248;28;20235;-68
2023/02/13 10:31:13;;;;;;;6.43;4.40;;;7.20;99.90;;;6.96;72.73;101871.78;5013921;28;20242;-64
2023/02/13 10:33:49;;;;;;;5.93;4.10;;;7.10;99.90;;;6.88;73.83;101870.63;5049280;28;20210;-65
2023/02/13 10:36:21;;;;;;;7.80;5.27;;;7.10;99.90;;;6.83;73.83;101856.81;5042098;28;20284;-66
2023/02/13 10:39:00;;;;;;;5.87;4.77;;;7.00;99.90;;;6.78;74.15;101860.09;5041391;28;20728;-65
2023/02/13 10:41:44;;;;;;;6.03;4.30;;;7.00;99.90;;;6.75;73.42;101854.88;5042646;28;20217;-66
2023/02/13 10:44:38;;;;;;;7.00;4.80;;;6.90;99.90;;;6.80;74.95;101857.59;5039869;28;20554;-66
2023/02/13 10:47:27;;;;;;;6.43;4.33;;;7.00;99.90;;;6.87;74.06;101843.28;5040231;28;20210;-67
2023/02/13 10:50:13;;;;;;;6.60;4.93;;;7.00;99.90;;;6.91;74.90;101838.31;5037717;28;20233;-66
2023/02/13 10:52:56;;;;;;;9.57;4.97;;;7.10;99.90;;;6.96;74.60;101836.78;5048962;28;20674;-66
2023/02/13 10:55:53;;;;;;;6.33;4.47;;;7.10;99.90;;;6.95;74.02;101839.28;5041508;28;20301;-66
2023/02/13 10:58:34;;;;;;;8.63;5.47;;;7.10;99.90;;;6.95;74.60;101839.28;5028260;28;20293;-67
2023/02/13 11:01:09;;;;;;;7.53;5.40;;;7.10;99.90;;;7.05;74.55;101843.00;5046466;28;20624;-65
2023/02/13 11:03:39;;;;;;;9.93;6.10;;;7.20;99.90;;;7.11;74.40;101846.66;5040540;28;20251;-64
2023/02/13 11:06:14;;;;;;;8.40;5.97;;;7.20;99.90;;;7.11;73.96;101844.06;5044257;28;20608;-66
2023/02/13 11:08:46;;;;;;;9.77;6.07;;;7.20;99.90;;;7.13;74.06;101847.53;5041278;28;20255;-65
2023/02/13 11:11:33;;;;;;;10.30;5.47;;;7.30;99.90;;;7.10;74.79;101833.75;5039770;28;20639;-65
2023/02/13 11:14:13;;;;;;;8.33;6.30;;;7.30;99.90;;;7.05;74.71;101837.88;5043483;28;20275;-65
2023/02/13 11:16:50;;;;;;;7.50;5.30;;;7.20;99.90;;;7.05;75.04;101830.19;5037315;28;20619;-64
2023/02/13 11:19:28;;;;;;;7.73;5.60;;;7.20;99.90;;;7.06;74.80;101825.09;5036912;28;20873;-66
2023/02/13 11:22:02;;;;;;;9.80;6.17;;;7.30;99.90;;;7.09;74.89;101822.63;5037494;28;20562;-65
2023/02/13 11:24:32;;;;;;;10.17;5.03;;;7.30;99.90;;;7.12;74.54;101820.19;5040306;28;20252;-68